Latest Weather Observations for Coolangatta

IDN60801

Issued at 5:32 am EST Wednesday 25 May 2016 (issued every 30 minutes, with the page automatically refreshed every 10 minutes)

About weather observations | Map of weather stations | Latest weather observations for NSW | Other Formats
Station Details ID: 040717 Name: COOLANGATTA Lat: -28.17 Lon: 153.51 Height: 4.0 m
Data from the previous 72 hours. | See also: Recent months at Coolangatta
Date/Time
EST
Temp
°C
App
Temp
°C
Dew
Point
Rel
Hum
%
Delta-T
°C
Wind Press
QNH
hPa
Press
MSL
hPa
Rain
since 9 am
mm
Dir
 
Spd
km/h
Gust
km/h
Spd
kts
Gust
kts
25/05:30am 8.2 5.6 6.3 88 0.9 SSW 9 11 5 6 1016.4 1016.4 0.0
25/05:00am 8.5 4.2 6.8 89 0.8 WSW 19 20 10 11 1016.2 1016.2 0.0
25/04:30am 8.2 4.9 6.5 89 0.8 WSW 13 15 7 8 1016.0 1016.0 0.0
25/04:00am 7.9 5.6 7.3 96 0.3 SW 9 11 5 6 1015.8 1015.8 0.0
25/03:30am 8.3 6.5 7.9 97 0.2 WSW 7 11 4 6 1015.6 1015.6 0.0
25/03:00am 8.0 6.3 7.6 97 0.2 SW 6 9 3 5 1015.8 1015.8 0.0
25/02:49am 8.3 6.5 7.9 97 0.2 SW 7 9 4 5 1015.8 1015.8 0.0
25/02:30am 7.4 5.9 6.7 95 0.3 S 4 7 2 4 1015.7 1015.7 0.0
25/02:22am 7.8 6.7 7.1 95 0.3 SSW 2 7 1 4 1015.8 1015.8 0.0
25/02:00am 8.6 7.0 7.8 95 0.4 SSW 6 7 3 4 1015.8 1015.8 0.0
25/01:30am 8.8 7.2 7.9 94 0.4 SW 6 7 3 4 1015.8 1015.8 0.0
25/01:00am 8.5 6.7 7.3 92 0.6 SW 6 7 3 4 1016.2 1016.2 0.0
25/12:30am 11.1 11.1 9.9 92 0.6 CALM 0 6 0 3 1016.6 1016.6 0.0
25/12:00am 11.3 10.0 10.0 92 0.7 SW 7 9 4 5 1016.5 1016.5 0.0
 
Date/Time
EST
Temp
°C
App
Temp
°C
Dew
Point
Rel
Hum
%
Delta-T
°C
Wind Press
QNH
hPa
Press
MSL
hPa
Rain
since 9 am
mm
Dir
 
Spd
km/h
Gust
km/h
Spd
kts
Gust
kts
24/11:30pm 10.8 8.9 9.1 89 0.8 WSW 9 11 5 6 1016.7 1016.7 0.0
24/11:00pm 11.2 9.4 9.5 89 0.9 NW 9 11 5 6 1016.7 1016.7 0.0
24/10:30pm 12.2 11.1 10.8 91 0.7 SW 7 9 4 5 1016.8 1016.8 0.0
24/10:00pm 12.2 11.0 10.3 88 1.0 WSW 7 9 4 5 1016.7 1016.7 0.0
24/09:30pm 12.2 10.4 9.6 84 1.3 WSW 9 11 5 6 1016.8 1016.8 0.0
24/09:00pm 12.4 10.6 9.6 83 1.4 W 9 11 5 6 1016.8 1016.8 0.0
24/08:30pm 13.3 11.5 10.7 84 1.4 WSW 11 13 6 7 1017.0 1017.0 0.0
24/08:00pm 13.9 11.7 10.7 81 1.7 WSW 13 15 7 8 1017.0 1017.0 0.0
24/07:30pm 14.1 12.3 10.7 80 1.8 WSW 11 15 6 8 1016.8 1016.8 0.0
24/07:00pm 14.1 12.4 9.9 76 2.2 WSW 9 13 5 7 1016.6 1016.6 0.0
24/06:30pm 14.8 13.0 10.8 77 2.1 WSW 11 13 6 7 1016.5 1016.5 0.0
24/06:00pm 15.1 13.1 10.1 72 2.6 WSW 11 13 6 7 1016.3 1016.3 0.0
24/05:30pm 15.4 15.3 9.3 67 3.1 CALM 0 0 0 0 1015.9 1015.9 0.0
24/05:00pm 18.6 16.9 8.3 51 5.3 SE 7 9 4 5 1015.7 1015.7 0.0
24/04:30pm 20.4 17.3 8.7 47 6.1 SE 15 24 8 13 1015.5 1015.5 0.0
24/04:00pm 21.6 17.5 8.8 44 6.8 SE 20 28 11 15 1015.5 1015.5 0.0
24/03:30pm 22.1 17.8 9.3 44 6.9 ESE 22 28 12 15 1015.3 1015.3 0.0
24/03:00pm 22.4 18.4 8.9 42 7.2 ESE 20 28 11 15 1015.2 1015.2 0.0
24/02:30pm 23.4 18.6 7.5 36 8.3 SE 22 30 12 16 1015.1 1015.1 0.0
24/02:00pm 23.6 19.1 6.8 34 8.7 SE 20 26 11 14 1014.8 1014.8 0.0
24/01:30pm 23.8 19.3 6.1 32 9.0 SE 19 24 10 13 1014.9 1014.9 0.0
24/01:00pm 24.0 20.2 7.6 35 8.6 SSE 17 30 9 16 1014.9 1014.9 0.0
24/12:30pm 24.0 19.4 6.7 33 8.9 SSE 20 26 11 14 1015.3 1015.3 0.0
24/12:00pm 23.6 18.9 6.0 32 8.9 SSE 20 28 11 15 1015.9 1015.9 0.0
24/11:30am 23.6 19.1 6.8 34 8.7 S 20 28 11 15 1016.6 1016.6 0.0
24/11:00am 23.5 19.2 7.2 35 8.5 SSW 19 26 10 14 1017.3 1017.3 0.0
24/10:30am 23.0 18.6 7.5 37 8.1 S 20 30 11 16 1017.8 1017.8 0.0
24/10:00am 22.7 18.4 6.9 36 8.1 SSW 19 30 10 16 1018.1 1018.1 0.0
24/09:30am 22.5 18.7 9.0 42 7.2 S 19 26 10 14 1018.0 1018.0 0.0
24/09:00am 21.8 17.8 9.0 44 6.8 S 20 30 11 16 1017.8 1017.8 0.0
24/08:30am 21.7 19.0 10.2 48 6.3 S 15 20 8 11 1017.7 1017.7 0.0
24/08:00am 20.8 18.3 10.9 53 5.4 SSW 15 20 8 11 1017.3 1017.3 0.0
24/07:30am 19.9 17.8 11.1 57 4.8 S 13 19 7 10 1017.0 1017.0 0.0
24/07:00am 18.4 16.9 11.9 66 3.6 S 11 15 6 8 1016.8 1016.8 0.0
24/06:30am 17.8 16.3 11.8 68 3.3 S 11 15 6 8 1016.6 1016.6 0.0
24/06:00am 17.5 15.5 12.6 73 2.7 S 15 19 8 10 1016.2 1016.2 0.0
24/05:30am 17.7 16.0 13.6 77 2.3 S 15 19 8 10 1015.8 1015.8 0.0
24/05:00am 14.2 13.8 13.1 93 0.6 S 7 13 4 7 1015.5 1015.5 0.0
24/04:30am 14.7 15.9 13.7 94 0.6 CALM 0 6 0 3 1015.1 1015.1 0.0
24/04:00am 14.9 15.4 13.9 94 0.6 SW 4 7 2 4 1014.9 1014.9 0.0
24/03:30am 14.2 15.2 13.1 93 0.6 CALM 0 7 0 4 1015.0 1015.0 0.0
24/03:00am 14.8 15.6 13.8 94 0.6 WSW 2 6 1 3 1015.0 1015.0 0.0
24/02:30am 14.8 14.9 13.8 94 0.6 WSW 6 9 3 5 1015.0 1015.0 0.0
24/02:00am 14.8 15.2 13.7 93 0.6 WSW 4 7 2 4 1015.0 1015.0 0.0
24/01:30am 15.6 15.7 14.5 93 0.6 WSW 7 9 4 5 1015.0 1015.0 0.0
24/01:00am 15.9 17.0 14.6 92 0.7 WSW 2 7 1 4 1015.0 1015.0 0.0
24/12:30am 16.9 18.5 14.9 88 1.2 CALM 0 6 0 3 1015.3 1015.3 0.0
24/12:00am 17.4 16.9 13.9 80 2.0 WNW 9 11 5 6 1015.4 1015.4 0.0
 
Date/Time
EST
Temp
°C
App
Temp
°C
Dew
Point
Rel
Hum
%
Delta-T
°C
Wind Press
QNH
hPa
Press
MSL
hPa
Rain
since 9 am
mm
Dir
 
Spd
km/h
Gust
km/h
Spd
kts
Gust
kts
23/11:30pm 17.9 18.1 14.6 81 1.9 NW 7 9 4 5 1015.5 1015.5 0.0
23/11:00pm 19.2 19.0 14.7 75 2.6 N 9 11 5 6 1015.6 1015.6 0.0
23/10:30pm 19.5 20.4 15.2 76 2.5 NNW 4 7 2 4 1015.8 1015.8 0.0
23/10:00pm 20.0 19.9 15.0 73 2.9 N 9 15 5 8 1015.9 1015.9 0.0
23/09:30pm 20.4 20.5 15.4 73 3.0 NNW 9 11 5 6 1016.2 1016.2 0.0
23/09:00pm 20.6 19.8 15.2 71 3.2 NNW 13 20 7 11 1016.2 1016.2 0.0
23/08:30pm 20.6 20.3 15.4 72 3.1 NNW 11 15 6 8 1016.4 1016.4 0.0
23/08:00pm 21.5 19.6 15.3 68 3.7 NW 19 28 10 15 1016.3 1016.3 0.0
23/07:30pm 21.4 20.0 15.5 69 3.5 NNW 17 22 9 12 1016.1 1016.1 0.0
23/07:00pm 21.1 20.8 15.4 70 3.4 NW 11 15 6 8 1016.0 1016.0 0.0
23/06:30pm 21.5 21.1 15.3 68 3.7 NW 11 15 6 8 1015.6 1015.6 0.0
23/06:00pm 22.5 20.7 15.4 64 4.2 NNW 19 30 10 16 1015.5 1015.5 0.0
23/05:30pm 22.8 21.7 16.4 67 3.9 NNW 17 24 9 13 1015.1 1015.1 0.0
23/05:00pm 23.0 21.0 16.5 67 4.0 N 22 28 12 15 1014.9 1014.9 0.0
23/04:30pm 23.7 21.7 17.4 68 3.9 N 24 32 13 17 1014.9 1014.9 0.0
23/04:00pm 24.2 22.1 17.2 65 4.3 N 24 30 13 16 1014.6 1014.6 0.0
23/03:30pm 24.4 23.0 16.9 63 4.6 N 20 28 11 15 1014.5 1014.5 0.0
23/03:00pm 24.0 21.9 16.3 62 4.7 NNE 22 28 12 15 1014.5 1014.5 0.0
23/02:30pm 25.0 23.1 16.7 60 5.1 N 22 28 12 15 1014.5 1014.5 0.0
23/02:00pm 25.2 23.3 15.8 56 5.7 N 20 26 11 14 1014.8 1014.8 0.0
23/01:30pm 25.2 23.6 16.4 58 5.4 N 20 28 11 15 1015.0 1015.0 0.0
23/01:00pm 24.7 22.6 15.1 55 5.8 N 20 26 11 14 1015.5 1015.5 0.0
23/12:30pm 25.1 23.3 16.0 57 5.5 N 20 24 11 13 1016.2 1016.2 0.0
23/12:00pm 25.0 23.2 15.6 56 5.7 N 19 24 10 13 1016.7 1016.7 0.0
23/11:30am 25.1 23.1 15.4 55 5.9 N 20 24 11 13 1017.6 1017.6 0.0
23/11:00am 24.7 23.0 14.8 54 5.9 N 17 20 9 11 1018.2 1018.2 0.0
23/10:30am 24.5 24.8 14.9 55 5.7 N 7 13 4 7 1018.8 1018.8 0.0
23/10:00am 23.2 23.0 14.7 58 5.0 NNW 9 15 5 8 1019.3 1019.3 0.0
23/09:30am 22.2 22.4 14.8 63 4.4 NW 7 11 4 6 1019.8 1019.8 0.0
23/09:00am 20.7 21.2 15.0 70 3.3 W 6 7 3 4 1020.0 1020.0 0.0
23/08:30am 19.5 20.1 15.2 76 2.5 NW 6 9 3 5 1019.9 1019.9 0.0
23/08:00am 17.1 17.4 14.9 87 1.3 WSW 7 7 4 4 1020.0 1020.0 0.0
23/07:30am 15.5 16.0 14.9 96 0.3 WSW 6 7 3 4 1020.1 1020.1 0.0
23/07:00am 14.1 13.9 13.6 97 0.3 WSW 7 9 4 5 1020.1 1020.1 0.0
23/06:32am 13.4 13.1 12.8 96 0.3 WSW 6 7 3 4 1019.9 1019.9 0.0
23/06:30am 12.8 12.3 12.2 96 0.3 WSW 6 7 3 4 1019.9 1019.9 0.0
23/06:22am 12.4 12.9 11.6 95 0.4 CALM 0 7 0 4 1019.8 1019.8 0.0
23/06:13am 12.8 13.4 12.0 95 0.4 CALM 0 0 0 0 1019.7 1019.7 0.0
23/06:00am 13.2 14.0 12.4 95 0.4 CALM 0 0 0 0 1019.7 1019.7 0.0
23/05:53am 13.4 14.3 12.8 96 0.3 CALM 0 0 0 0 1019.6 1019.6 0.0
23/05:30am 13.8 13.6 13.0 95 0.4 SW 6 11 3 6 1019.5 1019.5 0.0
23/05:00am 14.2 14.6 13.6 96 0.3 SSW 4 7 2 4 1019.7 1019.7 0.0
23/04:30am 14.2 13.6 13.6 96 0.3 WSW 9 11 5 6 1019.6 1019.6 0.0
23/04:00am 14.3 15.0 13.5 95 0.4 S 2 6 1 3 1019.5 1019.5 0.0
23/03:30am 14.4 14.3 13.4 94 0.6 SW 6 7 3 4 1019.6 1019.6 0.0
23/03:00am 14.8 14.9 13.8 94 0.6 SSW 6 7 3 4 1019.5 1019.5 0.0
23/02:30am 14.9 15.3 13.8 93 0.6 SW 4 7 2 4 1019.9 1019.9 0.0
23/02:00am 14.8 14.8 13.5 92 0.7 WSW 6 9 3 5 1020.3 1020.3 0.0
23/01:30am 15.4 15.6 14.3 93 0.6 SW 6 7 3 4 1020.3 1020.3 0.0
23/01:00am 15.4 16.8 14.3 93 0.6 CALM 0 4 0 2 1020.6 1020.6 0.0
23/12:30am 15.1 15.2 13.8 92 0.7 WSW 6 7 3 4 1020.8 1020.8 0.0
23/12:00am 15.6 16.2 14.3 92 0.7 SW 4 9 2 5 1021.1 1021.1 0.0
 
Date/Time
EST
Temp
°C
App
Temp
°C
Dew
Point
Rel
Hum
%
Delta-T
°C
Wind Press
QNH
hPa
Press
MSL
hPa
Rain
since 9 am
mm
Dir
 
Spd
km/h
Gust
km/h
Spd
kts
Gust
kts
22/11:30pm 15.9 17.0 14.6 92 0.7 SW 2 7 1 4 1021.4 1021.4 0.0
22/11:00pm 16.1 16.3 14.6 91 0.9 SW 7 11 4 6 1021.4 1021.4 0.0
22/10:30pm 16.4 17.5 14.6 89 1.0 SW 2 7 1 4 1021.6 1021.6 0.0
22/10:00pm 17.1 18.4 15.1 88 1.2 SW 2 7 1 4 1021.7 1021.7 0.0
22/09:30pm 17.7 18.2 15.1 85 1.5 SW 6 9 3 5 1021.9 1021.9 0.0
22/09:00pm 18.2 18.7 15.5 84 1.6 SW 7 9 4 5 1022.0 1022.0 0.0
22/08:30pm 18.3 18.9 15.2 82 1.8 SW 6 9 3 5 1022.1 1022.1 0.0
22/08:00pm 18.8 18.9 15.5 81 1.9 WSW 9 13 5 7 1022.2 1022.2 0.0
22/07:30pm 18.4 18.7 16.0 86 1.4 WSW 9 13 5 7 1022.2 1022.2 0.0
22/07:00pm 18.0 18.1 15.4 85 1.5 WSW 9 11 5 6 1022.3 1022.3 0.0
22/06:30pm 18.7 20.4 15.2 80 2.0 CALM 0 0 0 0 1022.0 1022.0 0.0
22/06:00pm 19.8 20.4 15.4 76 2.6 WSW 6 9 3 5 1022.0 1022.0 0.0
22/05:30pm 20.4 20.5 14.5 69 3.4 ESE 7 11 4 6 1021.9 1021.9 0.0
22/05:00pm 20.6 20.2 14.0 66 3.8 ESE 9 11 5 6 1021.8 1021.8 0.0
22/04:30pm 21.6 21.3 14.3 63 4.3 ESE 9 11 5 6 1021.7 1021.7 0.0
22/04:00pm 22.3 21.1 13.9 59 4.9 ESE 13 17 7 9 1021.5 1021.5 0.0
22/03:30pm 23.4 22.2 14.1 56 5.5 E 13 20 7 11 1021.4 1021.4 0.0
22/03:00pm 23.9 23.1 14.0 54 5.8 E 11 20 6 11 1021.4 1021.4 0.0
22/02:30pm 24.0 22.7 13.8 53 6.0 E 13 19 7 10 1021.5 1021.5 0.0
22/02:00pm 23.3 21.7 14.0 56 5.4 E 15 22 8 12 1021.7 1021.7 0.0
22/01:30pm 24.2 22.9 14.9 56 5.5 ESE 15 20 8 11 1021.9 1021.9 0.0
22/01:00pm 23.5 23.0 14.8 58 5.2 SE 11 15 6 8 1022.0 1022.0 0.0
22/12:30pm 23.3 22.4 14.8 59 5.0 ESE 13 20 7 11 1022.5 1022.5 0.0
22/12:00pm 23.9 22.4 14.3 55 5.6 ESE 15 20 8 11 1023.1 1023.1 0.0
22/11:30am 23.6 21.9 14.6 57 5.3 SE 17 22 9 12 1023.3 1023.3 0.0
22/11:00am 23.3 21.8 14.3 57 5.3 SSE 15 24 8 13 1024.0 1024.0 0.0
22/10:30am 23.8 22.9 15.8 61 4.8 S 15 26 8 14 1024.3 1024.3 0.0
22/10:00am 23.7 23.0 16.5 64 4.4 SSE 15 20 8 11 1024.7 1024.7 0.0
22/09:30am 22.4 21.4 15.7 66 4.0 SSE 15 20 8 11 1024.5 1024.5 0.0
22/09:00am 21.9 22.3 16.2 70 3.4 S 9 13 5 7 1024.9 1024.9 0.0
22/08:30am 20.1 20.8 16.1 78 2.4 S 7 9 4 5 1025.0 1025.0 0.0
22/08:00am 19.2 19.9 16.2 83 1.8 S 7 9 4 5 1025.0 1025.0 0.0
22/07:30am 18.3 17.9 15.2 82 1.8 WSW 11 15 6 8 1025.1 1025.1 0.0
22/07:00am 17.5 18.0 15.5 88 1.2 S 7 11 4 6 1024.3 1024.3 0.0
22/06:30am 16.6 17.0 14.8 89 1.0 S 6 7 3 4 1024.6 1024.6 0.0
22/06:00am 16.9 17.2 15.1 89 1.0 S 7 11 4 6 1024.3 1024.3 0.0

Other Formats:

Comma delimited format used in spreadsheet applications
http://www.bom.gov.au/fwo/IDN60801/IDN60801.94592.axf

JavaScript Object Notation format (JSON) in row-major order
http://www.bom.gov.au/fwo/IDN60801/IDN60801.94592.json